sensor_id;sensor_type;location;lat;lon;timestamp;pressure;altitude;pressure_sealevel;temperature;humidity
6032;BME280;3044;43.232;27.972;2022-08-19T00:01:36;45020.50;;;-143.84;65.76
6032;BME280;3044;43.232;27.972;2022-08-19T00:04:06;45020.50;;;-143.84;65.62
6032;BME280;3044;43.232;27.972;2022-08-19T00:06:34;45030.03;;;-143.84;65.76
6032;BME280;3044;43.232;27.972;2022-08-19T00:09:05;45007.19;;;-143.84;65.80
6032;BME280;3044;43.232;27.972;2022-08-19T00:11:32;45022.41;;;-143.84;65.99
6032;BME280;3044;43.232;27.972;2022-08-19T00:14:00;45041.44;;;-143.84;66.30
6032;BME280;3044;43.232;27.972;2022-08-19T00:16:27;44993.84;;;-143.84;66.07
6032;BME280;3044;43.232;27.972;2022-08-19T00:18:56;45033.84;;;-143.84;66.38
6032;BME280;3044;43.232;27.972;2022-08-19T00:21:25;45007.19;;;-143.84;66.43
6032;BME280;3044;43.232;27.972;2022-08-19T00:23:52;45016.69;;;-143.84;66.70
6032;BME280;3044;43.232;27.972;2022-08-19T00:26:19;45014.78;;;-143.84;66.80
6032;BME280;3044;43.232;27.972;2022-08-19T00:28:46;45026.22;;;-143.84;66.60
6032;BME280;3044;43.232;27.972;2022-08-19T00:31:14;45031.94;;;-143.84;66.61
6032;BME280;3044;43.232;27.972;2022-08-19T00:33:41;45026.22;;;-143.84;66.75
6032;BME280;3044;43.232;27.972;2022-08-19T00:36:11;44991.94;;;-143.84;66.79
6032;BME280;3044;43.232;27.972;2022-08-19T00:38:39;45045.25;;;-143.84;67.04
6032;BME280;3044;43.232;27.972;2022-08-19T00:41:09;45014.78;;;-143.84;67.01
6032;BME280;3044;43.232;27.972;2022-08-19T00:43:36;45020.50;;;-143.84;67.16
6032;BME280;3044;43.232;27.972;2022-08-19T00:46:04;45010.97;;;-143.84;66.81
6032;BME280;3044;43.232;27.972;2022-08-19T00:48:33;45001.47;;;-143.84;67.07
6032;BME280;3044;43.232;27.972;2022-08-19T00:51:02;45041.44;;;-143.84;67.05
6032;BME280;3044;43.232;27.972;2022-08-19T00:53:32;45031.94;;;-143.84;66.95
6032;BME280;3044;43.232;27.972;2022-08-19T00:56:01;45010.97;;;-143.84;67.09
6032;BME280;3044;43.232;27.972;2022-08-19T00:58:33;45041.44;;;-143.84;67.51
6032;BME280;3044;43.232;27.972;2022-08-19T01:01:02;45033.84;;;-143.84;67.60
6032;BME280;3044;43.232;27.972;2022-08-19T01:03:30;44997.66;;;-143.84;67.84
6032;BME280;3044;43.232;27.972;2022-08-19T01:05:57;45026.22;;;-143.84;68.43
6032;BME280;3044;43.232;27.972;2022-08-19T01:08:25;45031.94;;;-143.84;68.63
6032;BME280;3044;43.232;27.972;2022-08-19T01:10:55;45030.03;;;-143.84;68.80
6032;BME280;3044;43.232;27.972;2022-08-19T01:13:27;45012.88;;;-143.84;68.95
6032;BME280;3044;43.232;27.972;2022-08-19T01:15:58;45035.75;;;-143.84;69.09
6032;BME280;3044;43.232;27.972;2022-08-19T01:18:26;45028.13;;;-143.84;69.29
6032;BME280;3044;43.232;27.972;2022-08-19T01:20:56;45047.16;;;-143.84;69.52
6032;BME280;3044;43.232;27.972;2022-08-19T01:23:27;45041.44;;;-143.84;69.66
6032;BME280;3044;43.232;27.972;2022-08-19T01:26:09;45024.31;;;-143.84;69.70
6032;BME280;3044;43.232;27.972;2022-08-19T01:28:37;45035.75;;;-143.84;69.84
6032;BME280;3044;43.232;27.972;2022-08-19T01:31:08;45045.25;;;-143.84;69.64
6032;BME280;3044;43.232;27.972;2022-08-19T01:33:37;45024.31;;;-143.84;69.66
6032;BME280;3044;43.232;27.972;2022-08-19T01:36:07;45035.75;;;-143.84;69.40
6032;BME280;3044;43.232;27.972;2022-08-19T01:38:39;45045.25;;;-143.84;69.62
6032;BME280;3044;43.232;27.972;2022-08-19T01:41:08;45066.22;;;-143.84;69.82
6032;BME280;3044;43.232;27.972;2022-08-19T01:43:37;45045.25;;;-143.84;69.58
6032;BME280;3044;43.232;27.972;2022-08-19T01:46:04;45010.97;;;-143.84;69.61
6032;BME280;3044;43.232;27.972;2022-08-19T01:48:37;45024.31;;;-143.84;69.30
6032;BME280;3044;43.232;27.972;2022-08-19T01:51:06;45031.94;;;-143.84;69.17
6032;BME280;3044;43.232;27.972;2022-08-19T01:53:33;45026.22;;;-143.84;68.95
6032;BME280;3044;43.232;27.972;2022-08-19T01:56:03;45039.53;;;-143.84;69.09
6032;BME280;3044;43.232;27.972;2022-08-19T01:58:35;45043.34;;;-143.84;69.07
6032;BME280;3044;43.232;27.972;2022-08-19T02:01:04;45064.31;;;-143.84;69.43
6032;BME280;3044;43.232;27.972;2022-08-19T02:03:31;45026.22;;;-143.84;69.27
6032;BME280;3044;43.232;27.972;2022-08-19T02:06:02;45018.59;;;-143.84;69.54
6032;BME280;3044;43.232;27.972;2022-08-19T02:08:33;45037.66;;;-143.84;69.61
6032;BME280;3044;43.232;27.972;2022-08-19T02:11:04;45033.84;;;-143.84;69.73
6032;BME280;3044;43.232;27.972;2022-08-19T02:13:32;45030.03;;;-143.84;69.93
6032;BME280;3044;43.232;27.972;2022-08-19T02:15:59;45026.22;;;-143.84;69.75
6032;BME280;3044;43.232;27.972;2022-08-19T02:18:26;45030.03;;;-143.84;69.54
6032;BME280;3044;43.232;27.972;2022-08-19T02:20:53;45045.25;;;-143.84;69.61
6032;BME280;3044;43.232;27.972;2022-08-19T02:23:21;45049.06;;;-143.84;69.41
6032;BME280;3044;43.232;27.972;2022-08-19T02:25:48;45037.66;;;-143.84;69.37
6032;BME280;3044;43.232;27.972;2022-08-19T02:28:18;45014.78;;;-143.84;69.35
6032;BME280;3044;43.232;27.972;2022-08-19T02:30:47;45024.31;;;-143.84;69.32
6032;BME280;3044;43.232;27.972;2022-08-19T02:33:14;45012.88;;;-143.84;69.37
6032;BME280;3044;43.232;27.972;2022-08-19T02:35:42;45022.41;;;-143.84;69.20
6032;BME280;3044;43.232;27.972;2022-08-19T02:38:09;45035.75;;;-143.84;69.21
6032;BME280;3044;43.232;27.972;2022-08-19T02:40:56;45028.13;;;-143.84;69.01
6032;BME280;3044;43.232;27.972;2022-08-19T02:43:26;45043.34;;;-143.84;69.02
6032;BME280;3044;43.232;27.972;2022-08-19T02:45:53;45064.31;;;-143.84;69.17
6032;BME280;3044;43.232;27.972;2022-08-19T02:48:23;45031.94;;;-143.84;69.14
6032;BME280;3044;43.232;27.972;2022-08-19T02:50:52;45030.03;;;-143.84;69.09
6032;BME280;3044;43.232;27.972;2022-08-19T02:53:21;45010.97;;;-143.84;69.12
6032;BME280;3044;43.232;27.972;2022-08-19T02:55:50;45026.22;;;-143.84;69.14
6032;BME280;3044;43.232;27.972;2022-08-19T02:58:17;45049.06;;;-143.84;69.10
6032;BME280;3044;43.232;27.972;2022-08-19T03:00:48;45054.78;;;-143.84;69.21
6032;BME280;3044;43.232;27.972;2022-08-19T03:03:17;45041.44;;;-143.84;69.12
6032;BME280;3044;43.232;27.972;2022-08-19T03:05:45;45037.66;;;-143.84;69.32
6032;BME280;3044;43.232;27.972;2022-08-19T03:08:13;45016.69;;;-143.84;69.25
6032;BME280;3044;43.232;27.972;2022-08-19T03:10:42;45022.41;;;-143.84;69.50
6032;BME280;3044;43.232;27.972;2022-08-19T03:13:11;45039.53;;;-143.84;69.36
6032;BME280;3044;43.232;27.972;2022-08-19T03:15:40;45020.50;;;-143.84;69.54
6032;BME280;3044;43.232;27.972;2022-08-19T03:18:10;45039.53;;;-143.84;69.38
6032;BME280;3044;43.232;27.972;2022-08-19T03:20:41;45014.78;;;-143.84;69.52
6032;BME280;3044;43.232;27.972;2022-08-19T03:23:09;45030.03;;;-143.84;69.68
6032;BME280;3044;43.232;27.972;2022-08-19T03:25:37;45041.44;;;-143.84;69.61
6032;BME280;3044;43.232;27.972;2022-08-19T03:28:06;45058.59;;;-143.84;69.63
6032;BME280;3044;43.232;27.972;2022-08-19T03:30:33;45033.84;;;-143.84;69.75
6032;BME280;3044;43.232;27.972;2022-08-19T03:33:01;45005.28;;;-143.84;69.82
6032;BME280;3044;43.232;27.972;2022-08-19T03:35:30;45052.88;;;-143.84;69.68
6032;BME280;3044;43.232;27.972;2022-08-19T03:37:58;45033.84;;;-143.84;69.56
6032;BME280;3044;43.232;27.972;2022-08-19T03:40:25;45041.44;;;-143.84;69.53
6032;BME280;3044;43.232;27.972;2022-08-19T03:42:52;45033.84;;;-143.84;69.48
6032;BME280;3044;43.232;27.972;2022-08-19T03:45:19;45037.66;;;-143.84;69.61
6032;BME280;3044;43.232;27.972;2022-08-19T03:47:46;45009.09;;;-143.84;69.94
6032;BME280;3044;43.232;27.972;2022-08-19T03:50:14;45009.09;;;-143.84;69.84
6032;BME280;3044;43.232;27.972;2022-08-19T03:52:48;45041.44;;;-143.84;69.72
6032;BME280;3044;43.232;27.972;2022-08-19T03:55:16;45039.53;;;-143.84;69.69
6032;BME280;3044;43.232;27.972;2022-08-19T03:57:43;45028.13;;;-143.84;69.34
6032;BME280;3044;43.232;27.972;2022-08-19T04:00:12;45024.31;;;-143.84;68.67
6032;BME280;3044;43.232;27.972;2022-08-19T04:02:40;45016.69;;;-143.84;67.56
6032;BME280;3044;43.232;27.972;2022-08-19T04:05:07;45020.50;;;-143.84;66.67
6032;BME280;3044;43.232;27.972;2022-08-19T04:07:34;44999.56;;;-143.84;65.76
6032;BME280;3044;43.232;27.972;2022-08-19T04:10:04;45022.41;;;-143.84;65.60
6032;BME280;3044;43.232;27.972;2022-08-19T04:12:32;45007.19;;;-143.84;65.02
6032;BME280;3044;43.232;27.972;2022-08-19T04:14:59;45028.13;;;-143.84;64.42
6032;BME280;3044;43.232;27.972;2022-08-19T04:17:26;45009.09;;;-143.84;64.74
6032;BME280;3044;43.232;27.972;2022-08-19T04:19:53;45031.94;;;-143.84;65.04
6032;BME280;3044;43.232;27.972;2022-08-19T04:22:20;45001.47;;;-143.84;65.40
6032;BME280;3044;43.232;27.972;2022-08-19T04:24:47;45003.38;;;-143.84;65.88
6032;BME280;3044;43.232;27.972;2022-08-19T04:27:16;45007.19;;;-143.84;66.07
6032;BME280;3044;43.232;27.972;2022-08-19T04:29:43;45012.88;;;-143.84;65.95
6032;BME280;3044;43.232;27.972;2022-08-19T04:32:11;45022.41;;;-143.84;65.67
6032;BME280;3044;43.232;27.972;2022-08-19T04:34:41;45010.97;;;-143.84;64.86
6032;BME280;3044;43.232;27.972;2022-08-19T04:37:08;45022.41;;;-143.84;63.75
6032;BME280;3044;43.232;27.972;2022-08-19T04:39:37;44984.31;;;-143.84;62.95
6032;BME280;3044;43.232;27.972;2022-08-19T04:42:23;45005.28;;;-143.84;62.21
6032;BME280;3044;43.232;27.972;2022-08-19T04:45:07;45030.03;;;-143.84;60.65
6032;BME280;3044;43.232;27.972;2022-08-19T04:47:35;45012.88;;;-143.84;59.93
6032;BME280;3044;43.232;27.972;2022-08-19T04:50:03;45007.19;;;-143.84;59.28
6032;BME280;3044;43.232;27.972;2022-08-19T04:52:31;44986.22;;;-143.84;58.40
6032;BME280;3044;43.232;27.972;2022-08-19T04:54:59;45001.47;;;-143.84;57.89
6032;BME280;3044;43.232;27.972;2022-08-19T04:57:27;44982.41;;;-143.84;56.95
6032;BME280;3044;43.232;27.972;2022-08-19T04:59:55;44990.03;;;-143.84;56.28
6032;BME280;3044;43.232;27.972;2022-08-19T05:02:23;44953.88;;;-143.84;55.53
6032;BME280;3044;43.232;27.972;2022-08-19T05:04:51;44982.41;;;-143.84;55.00
6032;BME280;3044;43.232;27.972;2022-08-19T05:07:22;44971.00;;;-143.84;54.58
6032;BME280;3044;43.232;27.972;2022-08-19T05:09:49;44972.91;;;-143.84;53.96
6032;BME280;3044;43.232;27.972;2022-08-19T05:12:17;44969.09;;;-143.84;53.39
6032;BME280;3044;43.232;27.972;2022-08-19T05:14:46;44965.28;;;-143.84;52.75
6032;BME280;3044;43.232;27.972;2022-08-19T05:17:13;44967.19;;;-143.84;52.18
6032;BME280;3044;43.232;27.972;2022-08-19T05:19:40;44931.00;;;-143.84;51.20
6032;BME280;3044;43.232;27.972;2022-08-19T05:22:24;44963.38;;;-143.84;50.33
6032;BME280;3044;43.232;27.972;2022-08-19T05:25:04;44946.25;;;-143.84;50.46
6032;BME280;3044;43.232;27.972;2022-08-19T05:27:32;44957.66;;;-143.84;49.95
6032;BME280;3044;43.232;27.972;2022-08-19T05:30:00;44946.25;;;-143.84;48.59
6032;BME280;3044;43.232;27.972;2022-08-19T05:32:28;44950.06;;;-143.84;48.48
6032;BME280;3044;43.232;27.972;2022-08-19T05:34:55;44946.25;;;-143.84;48.08
6032;BME280;3044;43.232;27.972;2022-08-19T05:37:22;44927.19;;;-143.84;48.19
6032;BME280;3044;43.232;27.972;2022-08-19T05:39:52;44950.06;;;-143.84;47.81
6032;BME280;3044;43.232;27.972;2022-08-19T05:42:20;44931.00;;;-143.84;47.62
6032;BME280;3044;43.232;27.972;2022-08-19T05:44:48;44929.09;;;-143.84;47.54
6032;BME280;3044;43.232;27.972;2022-08-19T05:47:18;44927.19;;;-143.84;47.05
6032;BME280;3044;43.232;27.972;2022-08-19T05:49:46;44974.81;;;-143.84;46.95
6032;BME280;3044;43.232;27.972;2022-08-19T05:52:15;44946.25;;;-143.84;47.04
6032;BME280;3044;43.232;27.972;2022-08-19T05:54:42;44923.41;;;-143.84;46.81
6032;BME280;3044;43.232;27.972;2022-08-19T05:57:10;44902.44;;;-143.84;45.94
6032;BME280;3044;43.232;27.972;2022-08-19T05:59:38;44946.25;;;-143.84;45.67
6032;BME280;3044;43.232;27.972;2022-08-19T06:02:05;44927.19;;;-143.84;45.93
6032;BME280;3044;43.232;27.972;2022-08-19T06:04:35;44911.97;;;-143.84;45.98
6032;BME280;3044;43.232;27.972;2022-08-19T06:07:02;44923.41;;;-143.84;45.36
6032;BME280;3044;43.232;27.972;2022-08-19T06:09:30;44913.88;;;-143.84;44.90
6032;BME280;3044;43.232;27.972;2022-08-19T06:11:58;44923.41;;;-143.84;45.01
6032;BME280;3044;43.232;27.972;2022-08-19T06:14:28;44927.19;;;-143.84;44.27
6032;BME280;3044;43.232;27.972;2022-08-19T06:16:56;44904.34;;;-143.84;43.99
6032;BME280;3044;43.232;27.972;2022-08-19T06:19:28;44906.25;;;-143.84;44.36
6032;BME280;3044;43.232;27.972;2022-08-19T06:21:58;44908.16;;;-143.84;44.19
6032;BME280;3044;43.232;27.972;2022-08-19T06:24:28;44908.16;;;-143.84;43.53
6032;BME280;3044;43.232;27.972;2022-08-19T06:26:58;44883.41;;;-143.84;43.19
6032;BME280;3044;43.232;27.972;2022-08-19T06:29:26;44883.41;;;-143.84;42.56
6032;BME280;3044;43.232;27.972;2022-08-19T06:31:55;44862.47;;;-143.84;42.93
6032;BME280;3044;43.232;27.972;2022-08-19T06:34:23;44873.88;;;-143.84;42.26
6032;BME280;3044;43.232;27.972;2022-08-19T06:36:51;44889.13;;;-143.84;42.54
6032;BME280;3044;43.232;27.972;2022-08-19T06:39:22;44852.94;;;-143.84;42.23
6032;BME280;3044;43.232;27.972;2022-08-19T06:41:52;44862.47;;;-143.84;41.92
6032;BME280;3044;43.232;27.972;2022-08-19T06:44:21;44862.47;;;-143.84;40.51
6032;BME280;3044;43.232;27.972;2022-08-19T06:46:48;44870.09;;;-143.84;40.43
6032;BME280;3044;43.232;27.972;2022-08-19T06:49:16;44851.03;;;-143.84;40.47
6032;BME280;3044;43.232;27.972;2022-08-19T06:51:45;44839.63;;;-143.84;39.96
6032;BME280;3044;43.232;27.972;2022-08-19T06:54:14;44843.44;;;-143.84;40.09
6032;BME280;3044;43.232;27.972;2022-08-19T06:56:43;44864.38;;;-143.84;39.72
6032;BME280;3044;43.232;27.972;2022-08-19T06:59:13;44839.63;;;-143.84;39.40
6032;BME280;3044;43.232;27.972;2022-08-19T07:01:44;44818.66;;;-143.84;38.56
6032;BME280;3044;43.232;27.972;2022-08-19T07:04:13;44832.00;;;-143.84;38.95
6032;BME280;3044;43.232;27.972;2022-08-19T07:06:41;44858.66;;;-143.84;38.09
6032;BME280;3044;43.232;27.972;2022-08-19T07:09:09;44833.91;;;-143.84;37.94
6032;BME280;3044;43.232;27.972;2022-08-19T07:11:37;44839.63;;;-143.84;38.30
6032;BME280;3044;43.232;27.972;2022-08-19T07:14:06;44797.72;;;-143.84;38.04
6032;BME280;3044;43.232;27.972;2022-08-19T07:16:34;44835.81;;;-143.84;37.71
6032;BME280;3044;43.232;27.972;2022-08-19T07:19:01;44828.19;;;-143.84;37.09
6032;BME280;3044;43.232;27.972;2022-08-19T07:21:29;44797.72;;;-143.84;37.72
6032;BME280;3044;43.232;27.972;2022-08-19T07:23:58;44803.44;;;-143.84;37.95
6032;BME280;3044;43.232;27.972;2022-08-19T07:26:28;44786.31;;;-143.84;37.74
6032;BME280;3044;43.232;27.972;2022-08-19T07:28:56;44824.38;;;-143.84;37.44
6032;BME280;3044;43.232;27.972;2022-08-19T07:31:27;44797.72;;;-143.84;37.19
6032;BME280;3044;43.232;27.972;2022-08-19T07:33:55;44786.31;;;-143.84;36.99
6032;BME280;3044;43.232;27.972;2022-08-19T07:36:24;44780.59;;;-143.84;37.90
6032;BME280;3044;43.232;27.972;2022-08-19T07:38:54;44780.59;;;-143.84;36.53
6032;BME280;3044;43.232;27.972;2022-08-19T07:41:24;44832.00;;;-143.84;36.96
6032;BME280;3044;43.232;27.972;2022-08-19T07:43:52;44772.97;;;-143.84;36.52
6032;BME280;3044;43.232;27.972;2022-08-19T07:46:20;44761.56;;;-143.84;36.09
6032;BME280;3044;43.232;27.972;2022-08-19T07:48:49;44790.13;;;-143.84;37.01
6032;BME280;3044;43.232;27.972;2022-08-19T07:51:19;44811.06;;;-143.84;35.93
6032;BME280;3044;43.232;27.972;2022-08-19T07:53:48;44809.16;;;-143.84;36.41
6032;BME280;3044;43.232;27.972;2022-08-19T07:56:18;44793.91;;;-143.84;35.33
6032;BME280;3044;43.232;27.972;2022-08-19T07:58:51;44776.78;;;-143.84;36.42
6032;BME280;3044;43.232;27.972;2022-08-19T08:08:09;44774.88;;;-143.84;35.67
6032;BME280;3044;43.232;27.972;2022-08-19T08:11:02;44797.72;;;-143.84;35.91
6032;BME280;3044;43.232;27.972;2022-08-19T08:13:29;44788.22;;;-143.84;35.73
6032;BME280;3044;43.232;27.972;2022-08-19T08:15:58;44776.78;;;-143.84;35.42
6032;BME280;3044;43.232;27.972;2022-08-19T08:18:25;44803.44;;;-143.84;34.57
6032;BME280;3044;43.232;27.972;2022-08-19T08:20:53;44771.06;;;-143.84;34.77
6032;BME280;3044;43.232;27.972;2022-08-19T08:23:22;44778.69;;;-143.84;35.28
6032;BME280;3044;43.232;27.972;2022-08-19T08:25:51;44811.06;;;-143.84;35.34
6032;BME280;3044;43.232;27.972;2022-08-19T08:28:19;44776.78;;;-143.84;35.29
6032;BME280;3044;43.232;27.972;2022-08-19T08:30:47;44784.41;;;-143.84;35.93
6032;BME280;3044;43.232;27.972;2022-08-19T08:33:18;44763.47;;;-143.84;35.15
6032;BME280;3044;43.232;27.972;2022-08-19T08:35:46;44778.69;;;-143.84;35.37
6032;BME280;3044;43.232;27.972;2022-08-19T08:38:13;44780.59;;;-143.84;33.97
6032;BME280;3044;43.232;27.972;2022-08-19T08:40:45;44767.25;;;-143.84;33.96
6032;BME280;3044;43.232;27.972;2022-08-19T08:43:22;44763.47;;;-143.84;33.52
6032;BME280;3044;43.232;27.972;2022-08-19T08:45:55;44759.66;;;-143.84;34.43
6032;BME280;3044;43.232;27.972;2022-08-19T08:48:30;44744.41;;;-143.84;33.96
6032;BME280;3044;43.232;27.972;2022-08-19T08:51:00;44753.94;;;-143.84;34.71
6032;BME280;3044;43.232;27.972;2022-08-19T08:53:30;44765.34;;;-143.84;33.57
6032;BME280;3044;43.232;27.972;2022-08-19T08:56:02;44746.31;;;-143.84;33.51
6032;BME280;3044;43.232;27.972;2022-08-19T08:58:41;44761.56;;;-143.84;35.11
6032;BME280;3044;43.232;27.972;2022-08-19T09:01:12;44755.84;;;-143.84;33.18
6032;BME280;3044;43.232;27.972;2022-08-19T09:03:40;44725.38;;;-143.84;33.73
6032;BME280;3044;43.232;27.972;2022-08-19T09:06:14;44744.41;;;-143.84;33.32
6032;BME280;3044;43.232;27.972;2022-08-19T09:08:49;44734.91;;;-143.84;33.42
6032;BME280;3044;43.232;27.972;2022-08-19T09:11:31;44763.47;;;-143.84;34.28
6032;BME280;3044;43.232;27.972;2022-08-19T09:14:10;44742.50;;;-143.84;33.20
6032;BME280;3044;43.232;27.972;2022-08-19T09:16:43;44731.09;;;-143.84;32.86
6032;BME280;3044;43.232;27.972;2022-08-19T09:19:10;44729.19;;;-143.84;33.61
6032;BME280;3044;43.232;27.972;2022-08-19T09:21:37;44734.91;;;-143.84;33.66
6032;BME280;3044;43.232;27.972;2022-08-19T09:24:05;44717.75;;;-143.84;33.34
6032;BME280;3044;43.232;27.972;2022-08-19T09:26:34;44744.41;;;-143.84;32.69
6032;BME280;3044;43.232;27.972;2022-08-19T09:29:01;44700.63;;;-143.84;33.36
6032;BME280;3044;43.232;27.972;2022-08-19T09:31:31;44723.47;;;-143.84;32.67
6032;BME280;3044;43.232;27.972;2022-08-19T09:33:58;44771.06;;;-143.84;32.86
6032;BME280;3044;43.232;27.972;2022-08-19T09:36:27;44752.03;;;-143.84;34.21
6032;BME280;3044;43.232;27.972;2022-08-19T09:38:58;44761.56;;;-143.84;34.36
6032;BME280;3044;43.232;27.972;2022-08-19T09:41:27;44733.00;;;-143.84;32.10
6032;BME280;3044;43.232;27.972;2022-08-19T09:43:57;44761.56;;;-143.84;32.78
6032;BME280;3044;43.232;27.972;2022-08-19T09:46:26;44738.69;;;-143.84;34.24
6032;BME280;3044;43.232;27.972;2022-08-19T09:48:54;44727.28;;;-143.84;33.11
6032;BME280;3044;43.232;27.972;2022-08-19T09:51:25;44727.28;;;-143.84;33.60
6032;BME280;3044;43.232;27.972;2022-08-19T09:53:54;44755.84;;;-143.84;34.14
6032;BME280;3044;43.232;27.972;2022-08-19T09:56:22;44738.69;;;-143.84;32.70
6032;BME280;3044;43.232;27.972;2022-08-19T09:58:50;44759.66;;;-143.84;32.37
6032;BME280;3044;43.232;27.972;2022-08-19T10:01:21;44746.31;;;-143.84;32.23
6032;BME280;3044;43.232;27.972;2022-08-19T10:03:50;44752.03;;;-143.84;33.83
6032;BME280;3044;43.232;27.972;2022-08-19T10:06:18;44738.69;;;-143.84;32.82
6032;BME280;3044;43.232;27.972;2022-08-19T10:08:46;44738.69;;;-143.84;34.20
6032;BME280;3044;43.232;27.972;2022-08-19T10:11:14;44740.59;;;-143.84;32.90
6032;BME280;3044;43.232;27.972;2022-08-19T10:13:43;44769.16;;;-143.84;32.83
6032;BME280;3044;43.232;27.972;2022-08-19T10:16:14;44784.41;;;-143.84;34.31
6032;BME280;3044;43.232;27.972;2022-08-19T10:18:42;44753.94;;;-143.84;33.49
6032;BME280;3044;43.232;27.972;2022-08-19T10:21:12;44738.69;;;-143.84;32.44
6032;BME280;3044;43.232;27.972;2022-08-19T10:23:41;44769.16;;;-143.84;32.79
6032;BME280;3044;43.232;27.972;2022-08-19T10:26:12;44761.56;;;-143.84;32.78
6032;BME280;3044;43.232;27.972;2022-08-19T10:28:40;44759.66;;;-143.84;34.16
6032;BME280;3044;43.232;27.972;2022-08-19T10:31:10;44752.03;;;-143.84;33.45
6032;BME280;3044;43.232;27.972;2022-08-19T10:33:38;44729.19;;;-143.84;33.68
6032;BME280;3044;43.232;27.972;2022-08-19T10:36:09;44744.41;;;-143.84;32.00
6032;BME280;3044;43.232;27.972;2022-08-19T10:38:37;44700.63;;;-143.84;32.41
6032;BME280;3044;43.232;27.972;2022-08-19T10:41:09;44759.66;;;-143.84;32.63
6032;BME280;3044;43.232;27.972;2022-08-19T10:43:37;44729.19;;;-143.84;33.46
6032;BME280;3044;43.232;27.972;2022-08-19T10:46:05;44782.50;;;-143.84;32.50
6032;BME280;3044;43.232;27.972;2022-08-19T10:48:33;44731.09;;;-143.84;34.34
6032;BME280;3044;43.232;27.972;2022-08-19T10:51:01;44782.50;;;-143.84;36.60
6032;BME280;3044;43.232;27.972;2022-08-19T10:53:47;44774.88;;;-143.84;37.10
6032;BME280;3044;43.232;27.972;2022-08-19T10:56:14;44763.47;;;-143.84;38.62
6032;BME280;3044;43.232;27.972;2022-08-19T10:58:59;44807.25;;;-143.84;39.27
6032;BME280;3044;43.232;27.972;2022-08-19T11:01:26;44788.22;;;-143.84;38.78
6032;BME280;3044;43.232;27.972;2022-08-19T11:03:55;44814.88;;;-143.84;39.43
6032;BME280;3044;43.232;27.972;2022-08-19T11:06:24;44812.97;;;-143.84;39.71
6032;BME280;3044;43.232;27.972;2022-08-19T11:08:54;44841.53;;;-143.84;40.63
6032;BME280;3044;43.232;27.972;2022-08-19T11:11:22;44809.16;;;-143.84;41.54
6032;BME280;3044;43.232;27.972;2022-08-19T11:13:49;44828.19;;;-143.84;42.85
6032;BME280;3044;43.232;27.972;2022-08-19T11:16:18;44832.00;;;-143.84;43.39
6032;BME280;3044;43.232;27.972;2022-08-19T11:18:47;44824.38;;;-143.84;44.12
6032;BME280;3044;43.232;27.972;2022-08-19T11:21:16;44807.25;;;-143.84;42.78
6032;BME280;3044;43.232;27.972;2022-08-19T11:23:45;44818.66;;;-143.84;40.53
6032;BME280;3044;43.232;27.972;2022-08-19T11:26:14;44839.63;;;-143.84;40.81
6032;BME280;3044;43.232;27.972;2022-08-19T11:28:43;44826.28;;;-143.84;41.48
6032;BME280;3044;43.232;27.972;2022-08-19T11:31:11;44820.56;;;-143.84;41.78
6032;BME280;3044;43.232;27.972;2022-08-19T11:33:38;44835.81;;;-143.84;41.63
6032;BME280;3044;43.232;27.972;2022-08-19T11:36:06;44835.81;;;-143.84;42.12
6032;BME280;3044;43.232;27.972;2022-08-19T11:38:33;44835.81;;;-143.84;42.56
6032;BME280;3044;43.232;27.972;2022-08-19T11:41:04;44851.03;;;-143.84;43.39
6032;BME280;3044;43.232;27.972;2022-08-19T11:43:34;44877.69;;;-143.84;42.54
6032;BME280;3044;43.232;27.972;2022-08-19T11:46:04;44841.53;;;-143.84;42.85
6032;BME280;3044;43.232;27.972;2022-08-19T11:48:32;44854.84;;;-143.84;43.32
6032;BME280;3044;43.232;27.972;2022-08-19T11:51:03;44868.19;;;-143.84;44.41
6032;BME280;3044;43.232;27.972;2022-08-19T11:53:32;44864.38;;;-143.84;44.08
6032;BME280;3044;43.232;27.972;2022-08-19T11:56:00;44839.63;;;-143.84;44.07
6032;BME280;3044;43.232;27.972;2022-08-19T11:58:27;44862.47;;;-143.84;43.93
6032;BME280;3044;43.232;27.972;2022-08-19T12:00:56;44862.47;;;-143.84;44.85
6032;BME280;3044;43.232;27.972;2022-08-19T12:03:24;44871.97;;;-143.84;44.70
6032;BME280;3044;43.232;27.972;2022-08-19T12:05:51;44891.03;;;-143.84;45.58
6032;BME280;3044;43.232;27.972;2022-08-19T12:08:18;44860.56;;;-143.84;44.55
6032;BME280;3044;43.232;27.972;2022-08-19T12:10:45;44866.28;;;-143.84;44.93
6032;BME280;3044;43.232;27.972;2022-08-19T12:13:13;44887.22;;;-143.84;45.53
6032;BME280;3044;43.232;27.972;2022-08-19T12:15:45;44873.88;;;-143.84;45.38
6032;BME280;3044;43.232;27.972;2022-08-19T12:18:14;44854.84;;;-143.84;46.35
6032;BME280;3044;43.232;27.972;2022-08-19T12:20:42;44866.28;;;-143.84;46.37
6032;BME280;3044;43.232;27.972;2022-08-19T12:23:11;44875.78;;;-143.84;46.12
6032;BME280;3044;43.232;27.972;2022-08-19T12:25:44;44887.22;;;-143.84;46.11
6032;BME280;3044;43.232;27.972;2022-08-19T12:28:18;44868.19;;;-143.84;46.04
6032;BME280;3044;43.232;27.972;2022-08-19T12:30:46;44860.56;;;-143.84;45.91
6032;BME280;3044;43.232;27.972;2022-08-19T12:33:15;44889.13;;;-143.84;46.09
6032;BME280;3044;43.232;27.972;2022-08-19T12:35:43;44875.78;;;-143.84;47.02
6032;BME280;3044;43.232;27.972;2022-08-19T12:38:12;44894.84;;;-143.84;47.89
6032;BME280;3044;43.232;27.972;2022-08-19T12:40:40;44870.09;;;-143.84;47.72
6032;BME280;3044;43.232;27.972;2022-08-19T12:43:07;44881.50;;;-143.84;48.36
6032;BME280;3044;43.232;27.972;2022-08-19T12:45:35;44885.31;;;-143.84;46.91
6032;BME280;3044;43.232;27.972;2022-08-19T12:48:03;44889.13;;;-143.84;48.01
6032;BME280;3044;43.232;27.972;2022-08-19T12:50:32;44900.53;;;-143.84;48.40
6032;BME280;3044;43.232;27.972;2022-08-19T12:52:59;44892.94;;;-143.84;48.71
6032;BME280;3044;43.232;27.972;2022-08-19T12:55:27;44908.16;;;-143.84;49.26
6032;BME280;3044;43.232;27.972;2022-08-19T12:57:55;44866.28;;;-143.84;49.08
6032;BME280;3044;43.232;27.972;2022-08-19T13:00:23;44879.59;;;-143.84;49.04
6032;BME280;3044;43.232;27.972;2022-08-19T13:02:51;44881.50;;;-143.84;50.76
6032;BME280;3044;43.232;27.972;2022-08-19T13:05:21;44887.22;;;-143.84;50.98
6032;BME280;3044;43.232;27.972;2022-08-19T13:07:52;44885.31;;;-143.84;50.31